Etusivu
METAR-TAF:

METAR-TAF

Lentoasemat :

Custer Airport

Monroe, Michigan, Yhdysvallat

Leveyspiiri: 41-56-24N, Pituuspiiri: 083-26-05W, korkeus merenpinnasta: 188 m

Tämänhetkinen sää

Tämä raportti tehtiin 10 minuuttia sitten, kello 14.36 UTC
Tuuli 9 kn idästä puuskistuen 15 kn:hen, vaihdellen koillisen ja idän/kaakon välillä
Lämpötila 12°C
Kosteus 94%
Ilmanpaine 1017 hPa
Näkyvyys: 16.1 km
Hajonneita pilviä 4300 ft:n korkeudessa
Pilvistä 5000 ft:n korkeudessa
heikkoa sadetta

METAR: KTTF 221436Z AUTO 08009G15KT 050V110 10SM -RA BKN043 OVC050 12/11 A3004 RMK AO2 P0001 T01150112

Aika: 10:46 (14:46 UTC)


TAF: puuttuu

Säähavainnot ja -ennusteet yli 4000 lentoasemalta (METAR- ja TAF-raportit).

Käytössä olevat sääasemat on merkitty karttaan keltaisilla ja punaisilla pisteillä.

Aseta hiiri pisteen päälle nähdäksesi sääaseman nimen.

Klikkaa sitten nähdäksesi säähavainnot ja -ennusteet.

Kartan vaihtaminen: klikkaa mustalla rastilla varustettuja vihreitä pisteitä, niin voit zoomata sisään; viivalla varustettua vihreää pistettä, niin voit zoomata ulos tai vihreitä nuolia, niin pääset viereisille kartoille.


METAR-TAF: